sensor_id;sensor_type;location;lat;lon;timestamp;pressure;altitude;pressure_sealevel;temperature;humidity
79752;BME280;69234;47.446;21.636;2024-03-02T00:00:13;100009.28;;;11.02;86.39
79752;BME280;69234;47.446;21.636;2024-03-02T00:00:47;100014.50;;;11.03;86.48
79752;BME280;69234;47.446;21.636;2024-03-02T00:01:19;100018.03;;;11.04;85.55
79752;BME280;69234;47.446;21.636;2024-03-02T00:01:50;100009.97;;;11.04;85.31
79752;BME280;69234;47.446;21.636;2024-03-02T00:02:21;100018.88;;;11.04;86.20
79752;BME280;69234;47.446;21.636;2024-03-02T00:02:52;100011.81;;;11.03;85.41
79752;BME280;69234;47.446;21.636;2024-03-02T00:03:23;100020.03;;;11.02;86.49
79752;BME280;69234;47.446;21.636;2024-03-02T00:03:54;100017.63;;;10.99;86.87
79752;BME280;69234;47.446;21.636;2024-03-02T00:04:25;100017.63;;;10.99;86.31
79752;BME280;69234;47.446;21.636;2024-03-02T00:04:56;100022.16;;;10.98;86.04
79752;BME280;69234;47.446;21.636;2024-03-02T00:05:27;100017.47;;;11.00;86.67
79752;BME280;69234;47.446;21.636;2024-03-02T00:05:58;100017.19;;;10.93;87.23
79752;BME280;69234;47.446;21.636;2024-03-02T00:06:29;100018.91;;;10.94;86.41
79752;BME280;69234;47.446;21.636;2024-03-02T00:06:59;100015.34;;;10.94;87.02
79752;BME280;69234;47.446;21.636;2024-03-02T00:07:30;100016.06;;;10.96;87.15
79752;BME280;69234;47.446;21.636;2024-03-02T00:08:05;100013.53;;;10.94;87.02
79752;BME280;69234;47.446;21.636;2024-03-02T00:08:37;100015.06;;;10.97;86.46
79752;BME280;69234;47.446;21.636;2024-03-02T00:09:10;100010.97;;;10.93;86.26
79752;BME280;69234;47.446;21.636;2024-03-02T00:09:44;100019.03;;;10.93;86.46
79752;BME280;69234;47.446;21.636;2024-03-02T00:10:23;100018.31;;;10.91;87.06
79752;BME280;69234;47.446;21.636;2024-03-02T00:11:01;100017.19;;;10.93;86.67
79752;BME280;69234;47.446;21.636;2024-03-02T00:11:35;100019.03;;;10.93;86.80
79752;BME280;69234;47.446;21.636;2024-03-02T00:12:07;100010.13;;;10.92;87.04
79752;BME280;69234;47.446;21.636;2024-03-02T00:12:39;100020.88;;;10.92;86.22
79752;BME280;69234;47.446;21.636;2024-03-02T00:13:10;100016.34;;;10.93;87.20
79752;BME280;69234;47.446;21.636;2024-03-02T00:13:43;100015.50;;;10.92;86.79
79752;BME280;69234;47.446;21.636;2024-03-02T00:14:16;100014.50;;;10.93;87.02
79752;BME280;69234;47.446;21.636;2024-03-02T00:14:47;100021.44;;;10.96;86.26
79752;BME280;69234;47.446;21.636;2024-03-02T00:15:55;100020.72;;;10.94;86.03
79752;BME280;69234;47.446;21.636;2024-03-02T00:16:30;100012.94;;;10.91;87.23
79752;BME280;69234;47.446;21.636;2024-03-02T00:17:02;100017.19;;;10.93;86.39
79752;BME280;69234;47.446;21.636;2024-03-02T00:17:33;100027.81;;;10.95;86.32
79752;BME280;69234;47.446;21.636;2024-03-02T00:18:04;100020.59;;;10.95;86.87
79752;BME280;69234;47.446;21.636;2024-03-02T00:18:36;100021.44;;;10.96;86.00
79752;BME280;69234;47.446;21.636;2024-03-02T00:19:09;100023.00;;;10.99;85.43
79752;BME280;69234;47.446;21.636;2024-03-02T00:19:40;100015.78;;;10.99;86.47
79752;BME280;69234;47.446;21.636;2024-03-02T00:20:18;100018.47;;;10.99;86.33
79752;BME280;69234;47.446;21.636;2024-03-02T00:20:56;100018.31;;;11.01;85.93
79752;BME280;69234;47.446;21.636;2024-03-02T00:21:30;100024.53;;;11.01;85.49
79752;BME280;69234;47.446;21.636;2024-03-02T00:22:01;100019.88;;;11.03;85.36
79752;BME280;69234;47.446;21.636;2024-03-02T00:22:35;100024.25;;;11.04;85.93
79752;BME280;69234;47.446;21.636;2024-03-02T00:23:10;100020.03;;;11.02;86.30
79752;BME280;69234;47.446;21.636;2024-03-02T00:23:44;100028.78;;;11.04;85.04
79752;BME280;69234;47.446;21.636;2024-03-02T00:24:21;100012.94;;;11.01;85.45
79752;BME280;69234;47.446;21.636;2024-03-02T00:24:52;100030.75;;;11.11;83.94
79752;BME280;69234;47.446;21.636;2024-03-02T00:25:23;100018.56;;;11.17;84.19
79752;BME280;69234;47.446;21.636;2024-03-02T00:25:55;100020.25;;;11.18;83.70
79752;BME280;69234;47.446;21.636;2024-03-02T00:26:29;100023.78;;;11.18;84.03
79752;BME280;69234;47.446;21.636;2024-03-02T00:27:01;100017.28;;;11.21;84.04
79752;BME280;69234;47.446;21.636;2024-03-02T00:27:34;100013.75;;;11.21;84.71
79752;BME280;69234;47.446;21.636;2024-03-02T00:28:05;100016.44;;;11.21;83.56
79752;BME280;69234;47.446;21.636;2024-03-02T00:28:40;100009.50;;;11.18;83.25
79752;BME280;69234;47.446;21.636;2024-03-02T00:29:11;100011.91;;;11.21;83.83
79752;BME280;69234;47.446;21.636;2024-03-02T00:29:46;100019.69;;;11.24;83.51
79752;BME280;69234;47.446;21.636;2024-03-02T00:31:13;100006.41;;;11.23;84.83
79752;BME280;69234;47.446;21.636;2024-03-02T00:31:44;100008.09;;;11.24;83.91
79752;BME280;69234;47.446;21.636;2024-03-02T00:32:16;100012.47;;;11.25;84.61
79752;BME280;69234;47.446;21.636;2024-03-02T00:32:47;100008.94;;;11.24;84.48
79752;BME280;69234;47.446;21.636;2024-03-02T00:33:21;100009.78;;;11.25;84.51
79752;BME280;69234;47.446;21.636;2024-03-02T00:33:53;100006.25;;;11.24;84.52
79752;BME280;69234;47.446;21.636;2024-03-02T00:34:24;100005.25;;;11.25;84.36
79752;BME280;69234;47.446;21.636;2024-03-02T00:34:55;100004.41;;;11.25;84.40
79752;BME280;69234;47.446;21.636;2024-03-02T00:35:26;100000.59;;;11.27;84.22
79752;BME280;69234;47.446;21.636;2024-03-02T00:35:58;99993.81;;;11.23;84.18
79752;BME280;69234;47.446;21.636;2024-03-02T00:36:30;99997.91;;;11.27;84.52
79752;BME280;69234;47.446;21.636;2024-03-02T00:37:01;99993.66;;;11.25;83.61
79752;BME280;69234;47.446;21.636;2024-03-02T00:37:32;99984.91;;;11.23;83.68
79752;BME280;69234;47.446;21.636;2024-03-02T00:38:06;99986.59;;;11.24;83.22
79752;BME280;69234;47.446;21.636;2024-03-02T00:38:55;99985.88;;;11.22;83.16
79752;BME280;69234;47.446;21.636;2024-03-02T00:39:27;99993.66;;;11.25;84.53
79752;BME280;69234;47.446;21.636;2024-03-02T00:39:58;99993.81;;;11.23;83.87
79752;BME280;69234;47.446;21.636;2024-03-02T00:40:29;99992.97;;;11.23;84.62
79752;BME280;69234;47.446;21.636;2024-03-02T00:41:05;99987.03;;;11.19;83.68
79752;BME280;69234;47.446;21.636;2024-03-02T00:41:41;99985.88;;;11.22;83.93
79752;BME280;69234;47.446;21.636;2024-03-02T00:42:14;99991.25;;;11.22;83.33
79752;BME280;69234;47.446;21.636;2024-03-02T00:42:45;99994.22;;;11.18;84.52
79752;BME280;69234;47.446;21.636;2024-03-02T00:43:41;99998.34;;;11.23;83.85
79752;BME280;69234;47.446;21.636;2024-03-02T00:44:15;99995.94;;;11.19;83.57
79752;BME280;69234;47.446;21.636;2024-03-02T00:44:46;99994.94;;;11.21;84.46
79752;BME280;69234;47.446;21.636;2024-03-02T00:45:18;99991.97;;;11.24;84.16
79752;BME280;69234;47.446;21.636;2024-03-02T00:45:49;99988.56;;;11.22;84.20
79752;BME280;69234;47.446;21.636;2024-03-02T00:46:20;99991.41;;;11.20;84.28
79752;BME280;69234;47.446;21.636;2024-03-02T00:46:53;99985.19;;;11.19;84.34
79752;BME280;69234;47.446;21.636;2024-03-02T00:47:24;99992.25;;;11.21;83.91
79752;BME280;69234;47.446;21.636;2024-03-02T00:47:55;99992.25;;;11.21;84.09
79752;BME280;69234;47.446;21.636;2024-03-02T00:50:53;99990.13;;;11.14;84.02
79752;BME280;69234;47.446;21.636;2024-03-02T00:51:29;99991.41;;;11.10;85.30
79752;BME280;69234;47.446;21.636;2024-03-02T00:52:01;99995.66;;;11.13;84.30
79752;BME280;69234;47.446;21.636;2024-03-02T00:52:32;99993.97;;;11.12;83.71
79752;BME280;69234;47.446;21.636;2024-03-02T00:53:03;99993.25;;;11.10;83.54
79752;BME280;69234;47.446;21.636;2024-03-02T00:53:34;100000.03;;;11.14;84.66
79752;BME280;69234;47.446;21.636;2024-03-02T00:54:07;99998.19;;;11.14;83.97
79752;BME280;69234;47.446;21.636;2024-03-02T00:54:38;99993.66;;;11.15;83.51
79752;BME280;69234;47.446;21.636;2024-03-02T00:55:09;99998.34;;;11.13;84.60
79752;BME280;69234;47.446;21.636;2024-03-02T00:55:40;99994.66;;;11.14;85.13
79752;BME280;69234;47.446;21.636;2024-03-02T00:56:15;100000.19;;;11.12;84.51
79752;BME280;69234;47.446;21.636;2024-03-02T00:56:47;99993.81;;;11.13;84.30
79752;BME280;69234;47.446;21.636;2024-03-02T00:57:18;99993.09;;;11.11;84.79
79752;BME280;69234;47.446;21.636;2024-03-02T00:57:49;99982.78;;;11.07;84.26
79752;BME280;69234;47.446;21.636;2024-03-02T00:58:20;99982.63;;;11.08;84.53
79752;BME280;69234;47.446;21.636;2024-03-02T00:58:52;99983.22;;;11.12;84.35
79752;BME280;69234;47.446;21.636;2024-03-02T01:01:08;99989.44;;;11.12;84.46
79752;BME280;69234;47.446;21.636;2024-03-02T01:01:40;99989.44;;;11.12;83.76
79752;BME280;69234;47.446;21.636;2024-03-02T01:02:11;99988.03;;;11.08;85.31
79752;BME280;69234;47.446;21.636;2024-03-02T01:02:41;99992.84;;;11.05;84.94
79752;BME280;69234;47.446;21.636;2024-03-02T01:03:14;99980.13;;;10.97;85.61
79752;BME280;69234;47.446;21.636;2024-03-02T01:03:46;99984.22;;;11.01;86.22
79752;BME280;69234;47.446;21.636;2024-03-02T01:04:17;99990.31;;;11.03;85.93
79752;BME280;69234;47.446;21.636;2024-03-02T01:04:48;99983.94;;;11.04;86.07
79752;BME280;69234;47.446;21.636;2024-03-02T01:05:20;99989.19;;;11.06;85.41
79752;BME280;69234;47.446;21.636;2024-03-02T01:05:51;99984.94;;;11.03;85.30
79752;BME280;69234;47.446;21.636;2024-03-02T01:06:21;99989.31;;;11.04;85.63
79752;BME280;69234;47.446;21.636;2024-03-02T01:06:53;99979.84;;;11.00;85.52
79752;BME280;69234;47.446;21.636;2024-03-02T01:07:24;99981.84;;;10.98;85.55
79752;BME280;69234;47.446;21.636;2024-03-02T01:07:54;99975.91;;;10.94;85.51
79752;BME280;69234;47.446;21.636;2024-03-02T01:08:25;99982.13;;;10.95;86.66
79752;BME280;69234;47.446;21.636;2024-03-02T01:08:59;99976.75;;;10.95;85.66
79752;BME280;69234;47.446;21.636;2024-03-02T01:09:30;99989.34;;;10.94;86.43
79752;BME280;69234;47.446;21.636;2024-03-02T01:10:01;99989.19;;;10.96;86.33
79752;BME280;69234;47.446;21.636;2024-03-02T01:10:32;99986.34;;;10.98;85.59
79752;BME280;69234;47.446;21.636;2024-03-02T01:11:03;99990.31;;;10.93;86.58
79752;BME280;69234;47.446;21.636;2024-03-02T01:11:34;99988.06;;;10.89;86.99
79752;BME280;69234;47.446;21.636;2024-03-02T01:12:05;99986.06;;;10.91;86.53
79752;BME280;69234;47.446;21.636;2024-03-02T01:12:36;99998.38;;;10.93;86.86
79752;BME280;69234;47.446;21.636;2024-03-02T01:13:07;99993.16;;;10.92;86.38
79752;BME280;69234;47.446;21.636;2024-03-02T01:13:38;99987.78;;;10.92;85.85
79752;BME280;69234;47.446;21.636;2024-03-02T01:14:09;99987.78;;;10.92;86.98
79752;BME280;69234;47.446;21.636;2024-03-02T01:14:41;99982.13;;;10.85;86.38
79752;BME280;69234;47.446;21.636;2024-03-02T01:15:12;99990.59;;;10.90;87.12
79752;BME280;69234;47.446;21.636;2024-03-02T01:15:42;99979.84;;;10.90;86.61
79752;BME280;69234;47.446;21.636;2024-03-02T01:16:14;99983.38;;;10.91;86.31
79752;BME280;69234;47.446;21.636;2024-03-02T01:16:46;99984.25;;;10.91;86.08
79752;BME280;69234;47.446;21.636;2024-03-02T01:17:17;99980.69;;;10.91;86.88
79752;BME280;69234;47.446;21.636;2024-03-02T01:17:48;99981.56;;;10.91;86.26
79752;BME280;69234;47.446;21.636;2024-03-02T01:18:19;99978.72;;;10.93;86.05
79752;BME280;69234;47.446;21.636;2024-03-02T01:18:49;99981.28;;;10.94;86.09
79752;BME280;69234;47.446;21.636;2024-03-02T01:19:20;99977.59;;;10.95;85.89
79752;BME280;69234;47.446;21.636;2024-03-02T01:19:51;99972.50;;;10.92;85.62
79752;BME280;69234;47.446;21.636;2024-03-02T01:20:22;99988.47;;;10.94;85.68
79752;BME280;69234;47.446;21.636;2024-03-02T01:20:53;99984.81;;;10.95;86.44
79752;BME280;69234;47.446;21.636;2024-03-02T01:21:26;99981.28;;;10.94;86.26
79752;BME280;69234;47.446;21.636;2024-03-02T01:21:57;99973.63;;;10.90;86.07
79752;BME280;69234;47.446;21.636;2024-03-02T01:22:28;99980.69;;;10.91;86.59
79752;BME280;69234;47.446;21.636;2024-03-02T01:22:59;99992.31;;;10.91;86.96
79752;BME280;69234;47.446;21.636;2024-03-02T01:23:30;99983.38;;;10.91;86.87
79752;BME280;69234;47.446;21.636;2024-03-02T01:24:00;99990.47;;;10.92;85.96
79752;BME280;69234;47.446;21.636;2024-03-02T01:24:32;99988.91;;;10.89;87.02
79752;BME280;69234;47.446;21.636;2024-03-02T01:25:04;99982.69;;;10.89;86.99
79752;BME280;69234;47.446;21.636;2024-03-02T01:25:35;99972.38;;;10.84;87.18
79752;BME280;69234;47.446;21.636;2024-03-02T01:26:06;99986.38;;;10.88;86.30
79752;BME280;69234;47.446;21.636;2024-03-02T01:26:37;99982.81;;;10.87;86.14
79752;BME280;69234;47.446;21.636;2024-03-02T01:27:08;99983.69;;;10.88;86.31
79752;BME280;69234;47.446;21.636;2024-03-02T01:27:39;99982.69;;;10.89;87.19
79752;BME280;69234;47.446;21.636;2024-03-02T01:28:10;99981.00;;;10.88;86.23
79752;BME280;69234;47.446;21.636;2024-03-02T01:28:41;99981.84;;;10.88;87.01
79752;BME280;69234;47.446;21.636;2024-03-02T01:29:12;99984.66;;;10.87;87.30
79752;BME280;69234;47.446;21.636;2024-03-02T01:29:43;99977.59;;;10.86;86.25
79752;BME280;69234;47.446;21.636;2024-03-02T01:30:14;99990.59;;;10.90;86.88
79752;BME280;69234;47.446;21.636;2024-03-02T01:30:45;99981.84;;;10.88;86.82
79752;BME280;69234;47.446;21.636;2024-03-02T01:31:16;99979.44;;;10.85;86.28
79752;BME280;69234;47.446;21.636;2024-03-02T01:31:47;99984.66;;;10.87;87.51
79752;BME280;69234;47.446;21.636;2024-03-02T01:32:18;99991.75;;;10.88;86.22
79752;BME280;69234;47.446;21.636;2024-03-02T01:32:49;99983.81;;;10.86;87.13
79752;BME280;69234;47.446;21.636;2024-03-02T01:33:20;99983.97;;;10.85;86.72
79752;BME280;69234;47.446;21.636;2024-03-02T01:33:51;99978.44;;;10.86;86.04
79752;BME280;69234;47.446;21.636;2024-03-02T01:34:22;99979.56;;;10.84;86.48
79752;BME280;69234;47.446;21.636;2024-03-02T01:34:53;99984.81;;;10.85;86.58
79752;BME280;69234;47.446;21.636;2024-03-02T01:35:24;99978.72;;;10.83;86.46
79752;BME280;69234;47.446;21.636;2024-03-02T01:35:55;99984.09;;;10.83;86.59
79752;BME280;69234;47.446;21.636;2024-03-02T01:36:26;99977.03;;;10.82;87.16
79752;BME280;69234;47.446;21.636;2024-03-02T01:36:57;99984.38;;;10.80;86.69
79752;BME280;69234;47.446;21.636;2024-03-02T01:37:28;99988.78;;;10.81;87.12
79752;BME280;69234;47.446;21.636;2024-03-02T01:37:59;99983.53;;;10.80;87.24
79752;BME280;69234;47.446;21.636;2024-03-02T01:38:30;99986.50;;;10.77;86.60
79752;BME280;69234;47.446;21.636;2024-03-02T01:39:01;99984.66;;;10.77;86.42
79752;BME280;69234;47.446;21.636;2024-03-02T01:39:33;99990.03;;;10.77;87.39
79752;BME280;69234;47.446;21.636;2024-03-02T01:40:05;99993.44;;;10.79;87.43
79752;BME280;69234;47.446;21.636;2024-03-02T01:40:39;99989.06;;;10.78;87.67
79752;BME280;69234;47.446;21.636;2024-03-02T01:41:10;99991.88;;;10.77;87.69
79752;BME280;69234;47.446;21.636;2024-03-02T01:41:42;99992.88;;;10.76;87.78
79752;BME280;69234;47.446;21.636;2024-03-02T01:42:13;99989.47;;;10.74;88.19
79752;BME280;69234;47.446;21.636;2024-03-02T01:42:44;99988.88;;;10.70;88.15
79752;BME280;69234;47.446;21.636;2024-03-02T01:43:15;99988.03;;;10.69;87.86
79752;BME280;69234;47.446;21.636;2024-03-02T01:43:46;99995.13;;;10.70;88.01
79752;BME280;69234;47.446;21.636;2024-03-02T01:44:17;99996.94;;;10.70;88.15
79752;BME280;69234;47.446;21.636;2024-03-02T01:44:48;99988.31;;;10.66;88.87
79752;BME280;69234;47.446;21.636;2024-03-02T01:45:19;99992.00;;;10.65;88.86
79752;BME280;69234;47.446;21.636;2024-03-02T01:45:50;99992.00;;;10.65;87.78
79752;BME280;69234;47.446;21.636;2024-03-02T01:46:21;99995.69;;;10.64;88.87
79752;BME280;69234;47.446;21.636;2024-03-02T01:46:52;99986.78;;;10.64;88.25
79752;BME280;69234;47.446;21.636;2024-03-02T01:47:23;99992.00;;;10.65;88.99
79752;BME280;69234;47.446;21.636;2024-03-02T01:47:54;99988.63;;;10.63;88.55
79752;BME280;69234;47.446;21.636;2024-03-02T01:48:25;99992.00;;;10.65;88.33
79752;BME280;69234;47.446;21.636;2024-03-02T01:48:56;99988.31;;;10.66;88.36
79752;BME280;69234;47.446;21.636;2024-03-02T01:49:27;99990.03;;;10.67;87.45
79752;BME280;69234;47.446;21.636;2024-03-02T01:49:58;99987.47;;;10.66;87.56
79752;BME280;69234;47.446;21.636;2024-03-02T01:50:32;99984.69;;;10.67;86.81
79752;BME280;69234;47.446;21.636;2024-03-02T01:51:03;99986.34;;;10.68;87.39
79752;BME280;69234;47.446;21.636;2024-03-02T01:51:36;99985.53;;;10.68;87.60
79752;BME280;69234;47.446;21.636;2024-03-02T01:52:07;99983.53;;;10.70;87.03
79752;BME280;69234;47.446;21.636;2024-03-02T01:52:39;99981.84;;;10.69;87.95
79752;BME280;69234;47.446;21.636;2024-03-02T01:53:10;99984.41;;;10.70;87.02
79752;BME280;69234;47.446;21.636;2024-03-02T01:53:41;99989.75;;;10.70;87.77
79752;BME280;69234;47.446;21.636;2024-03-02T01:54:12;99976.63;;;10.67;87.72
79752;BME280;69234;47.446;21.636;2024-03-02T01:54:43;99978.16;;;10.70;87.23
79752;BME280;69234;47.446;21.636;2024-03-02T01:55:14;99990.47;;;10.73;86.98
79752;BME280;69234;47.446;21.636;2024-03-02T01:55:45;99984.97;;;10.74;86.69
79752;BME280;69234;47.446;21.636;2024-03-02T01:56:16;99978.88;;;10.72;87.33
79752;BME280;69234;47.446;21.636;2024-03-02T01:56:47;99981.41;;;10.74;87.30
79752;BME280;69234;47.446;21.636;2024-03-02T01:57:19;99971.81;;;10.71;88.09
79752;BME280;69234;47.446;21.636;2024-03-02T01:57:50;99972.78;;;10.70;87.67
79752;BME280;69234;47.446;21.636;2024-03-02T01:58:21;99964.16;;;10.66;87.20
79752;BME280;69234;47.446;21.636;2024-03-02T01:58:52;99977.75;;;10.75;87.54
79752;BME280;69234;47.446;21.636;2024-03-02T01:59:23;99969.81;;;10.73;86.79
79752;BME280;69234;47.446;21.636;2024-03-02T01:59:54;99974.22;;;10.74;86.62
79752;BME280;69234;47.446;21.636;2024-03-02T02:00:25;99972.22;;;10.76;86.87
79752;BME280;69234;47.446;21.636;2024-03-02T02:00:57;99971.38;;;10.76;87.32
79752;BME280;69234;47.446;21.636;2024-03-02T02:01:27;99966.00;;;10.76;86.22
79752;BME280;69234;47.446;21.636;2024-03-02T02:01:58;99965.84;;;10.77;87.01
79752;BME280;69234;47.446;21.636;2024-03-02T02:02:29;99972.22;;;10.76;86.42
79752;BME280;69234;47.446;21.636;2024-03-02T02:03:00;99967.56;;;10.78;86.69
79752;BME280;69234;47.446;21.636;2024-03-02T02:03:31;99968.97;;;10.73;86.02
79752;BME280;69234;47.446;21.636;2024-03-02T02:04:02;99961.47;;;10.76;85.96
79752;BME280;69234;47.446;21.636;2024-03-02T02:04:33;99964.03;;;10.78;86.93
79752;BME280;69234;47.446;21.636;2024-03-02T02:05:04;99974.06;;;10.76;86.40
79752;BME280;69234;47.446;21.636;2024-03-02T02:05:36;99967.69;;;10.77;87.15
79752;BME280;69234;47.446;21.636;2024-03-02T02:06:08;99969.41;;;10.78;86.66
79752;BME280;69234;47.446;21.636;2024-03-02T02:06:38;99969.41;;;10.78;86.74
79752;BME280;69234;47.446;21.636;2024-03-02T02:07:10;99971.09;;;10.79;86.29
79752;BME280;69234;47.446;21.636;2024-03-02T02:07:44;99970.94;;;10.80;86.27
79752;BME280;69234;47.446;21.636;2024-03-02T02:08:15;99970.09;;;10.80;86.44
79752;BME280;69234;47.446;21.636;2024-03-02T02:08:46;99970.25;;;10.78;86.56
79752;BME280;69234;47.446;21.636;2024-03-02T02:09:17;99985.25;;;10.81;85.75
79752;BME280;69234;47.446;21.636;2024-03-02T02:09:49;99988.06;;;10.79;86.55
79752;BME280;69234;47.446;21.636;2024-03-02T02:10:19;99983.69;;;10.78;87.04
79752;BME280;69234;47.446;21.636;2024-03-02T02:10:50;99987.22;;;10.79;86.30
79752;BME280;69234;47.446;21.636;2024-03-02T02:11:21;99986.50;;;10.77;87.05
79752;BME280;69234;47.446;21.636;2024-03-02T02:11:54;99990.91;;;10.78;86.66
79752;BME280;69234;47.446;21.636;2024-03-02T02:12:25;99978.16;;;10.70;86.51
79752;BME280;69234;47.446;21.636;2024-03-02T02:12:56;99986.38;;;10.78;87.18
79752;BME280;69234;47.446;21.636;2024-03-02T02:13:26;99992.44;;;10.80;86.78
79752;BME280;69234;47.446;21.636;2024-03-02T02:13:57;99988.91;;;10.80;86.22
79752;BME280;69234;47.446;21.636;2024-03-02T02:14:28;99984.53;;;10.79;87.13
79752;BME280;69234;47.446;21.636;2024-03-02T02:14:59;99991.47;;;10.81;86.40
79752;BME280;69234;47.446;21.636;2024-03-02T02:15:31;99990.63;;;10.81;86.74
79752;BME280;69234;47.446;21.636;2024-03-02T02:16:08;99988.34;;;10.76;86.66
79752;BME280;69234;47.446;21.636;2024-03-02T02:16:39;99990.91;;;10.78;87.65
79752;BME280;69234;47.446;21.636;2024-03-02T02:17:10;99993.28;;;10.71;87.18
79752;BME280;69234;47.446;21.636;2024-03-02T02:17:41;100002.75;;;10.75;87.76
79752;BME280;69234;47.446;21.636;2024-03-02T02:18:12;100002.88;;;10.74;87.04
79752;BME280;69234;47.446;21.636;2024-03-02T02:18:43;99995.72;;;10.74;86.42
79752;BME280;69234;47.446;21.636;2024-03-02T02:19:14;99999.34;;;10.73;87.67
79752;BME280;69234;47.446;21.636;2024-03-02T02:19:44;100005.56;;;10.74;87.25
79752;BME280;69234;47.446;21.636;2024-03-02T02:20:16;100008.13;;;10.75;87.37
79752;BME280;69234;47.446;21.636;2024-03-02T02:20:47;100008.25;;;10.74;86.79
79752;BME280;69234;47.446;21.636;2024-03-02T02:21:17;100001.75;;;10.76;86.35
79752;BME280;69234;47.446;21.636;2024-03-02T02:21:48;100008.97;;;10.76;86.49
79752;BME280;69234;47.446;21.636;2024-03-02T02:22:19;99996.81;;;10.71;86.64
79752;BME280;69234;47.446;21.636;2024-03-02T02:23:27;99999.09;;;10.76;87.66
79752;BME280;69234;47.446;21.636;2024-03-02T02:23:58;100007.97;;;10.77;87.58
79752;BME280;69234;47.446;21.636;2024-03-02T02:24:28;100004.31;;;10.78;86.34
79752;BME280;69234;47.446;21.636;2024-03-02T02:25:01;100001.66;;;10.78;86.39
79752;BME280;69234;47.446;21.636;2024-03-02T02:25:31;100006.00;;;10.79;87.24
79752;BME280;69234;47.446;21.636;2024-03-02T02:26:02;100002.50;;;10.78;87.22
79752;BME280;69234;47.446;21.636;2024-03-02T02:26:34;100006.00;;;10.79;87.54
79752;BME280;69234;47.446;21.636;2024-03-02T02:27:05;100005.28;;;10.77;86.97
79752;BME280;69234;47.446;21.636;2024-03-02T02:27:36;100004.44;;;10.76;87.15
79752;BME280;69234;47.446;21.636;2024-03-02T02:28:08;100004.31;;;10.78;87.58
79752;BME280;69234;47.446;21.636;2024-03-02T02:28:38;100010.38;;;10.80;87.17
79752;BME280;69234;47.446;21.636;2024-03-02T02:29:09;100004.31;;;10.78;86.65
79752;BME280;69234;47.446;21.636;2024-03-02T02:29:41;99998.22;;;10.76;86.65
79752;BME280;69234;47.446;21.636;2024-03-02T02:30:12;100013.06;;;10.80;86.97
79752;BME280;69234;47.446;21.636;2024-03-02T02:30:43;100008.69;;;10.79;86.91
79752;BME280;69234;47.446;21.636;2024-03-02T02:31:14;100003.59;;;10.76;87.13
79752;BME280;69234;47.446;21.636;2024-03-02T02:31:45;100007.69;;;10.80;87.42
79752;BME280;69234;47.446;21.636;2024-03-02T02:32:16;100007.84;;;10.78;86.79
79752;BME280;69234;47.446;21.636;2024-03-02T02:32:48;100011.94;;;10.82;85.96
79752;BME280;69234;47.446;21.636;2024-03-02T02:33:18;100012.81;;;10.83;87.02
79752;BME280;69234;47.446;21.636;2024-03-02T02:33:49;100007.56;;;10.81;86.94
79752;BME280;69234;47.446;21.636;2024-03-02T02:34:20;100010.84;;;10.85;86.36
79752;BME280;69234;47.446;21.636;2024-03-02T02:34:54;100011.69;;;10.85;87.19
79752;BME280;69234;47.446;21.636;2024-03-02T02:35:25;100008.28;;;10.83;87.07
79752;BME280;69234;47.446;21.636;2024-03-02T02:35:56;100010.69;;;10.86;87.20
79752;BME280;69234;47.446;21.636;2024-03-02T02:36:27;100007.31;;;10.84;86.98
79752;BME280;69234;47.446;21.636;2024-03-02T02:36:58;100019.59;;;10.87;86.12
79752;BME280;69234;47.446;21.636;2024-03-02T02:37:29;100015.94;;;10.88;86.15
79752;BME280;69234;47.446;21.636;2024-03-02T02:38:00;100004.75;;;10.83;86.28
79752;BME280;69234;47.446;21.636;2024-03-02T02:38:33;99996.13;;;10.79;87.13
79752;BME280;69234;47.446;21.636;2024-03-02T02:39:10;100012.38;;;10.87;86.53
79752;BME280;69234;47.446;21.636;2024-03-02T02:39:42;100004.75;;;10.83;87.45
79752;BME280;69234;47.446;21.636;2024-03-02T02:40:14;100013.50;;;10.85;86.96
79752;BME280;69234;47.446;21.636;2024-03-02T02:40:45;100009.69;;;10.87;85.87
79752;BME280;69234;47.446;21.636;2024-03-02T02:41:16;100004.47;;;10.86;86.80
79752;BME280;69234;47.446;21.636;2024-03-02T02:41:47;100007.00;;;10.87;86.91
79752;BME280;69234;47.446;21.636;2024-03-02T02:42:18;100013.38;;;10.86;86.11
79752;BME280;69234;47.446;21.636;2024-03-02T02:42:49;100009.00;;;10.85;86.56
79752;BME280;69234;47.446;21.636;2024-03-02T02:43:22;100009.56;;;10.89;85.72
79752;BME280;69234;47.446;21.636;2024-03-02T02:43:53;100012.25;;;10.89;85.98
79752;BME280;69234;47.446;21.636;2024-03-02T02:44:24;100017.47;;;10.90;85.84
79752;BME280;69234;47.446;21.636;2024-03-02T02:44:55;100007.72;;;10.89;85.51
79752;BME280;69234;47.446;21.636;2024-03-02T02:45:26;100012.09;;;10.90;85.34
79752;BME280;69234;47.446;21.636;2024-03-02T02:45:57;100007.44;;;10.92;86.18
79752;BME280;69234;47.446;21.636;2024-03-02T02:46:28;100000.50;;;10.90;85.82
79752;BME280;69234;47.446;21.636;2024-03-02T02:46:59;100004.75;;;10.92;85.54
79752;BME280;69234;47.446;21.636;2024-03-02T02:47:30;100009.00;;;10.95;86.16
79752;BME280;69234;47.446;21.636;2024-03-02T02:48:01;100006.31;;;10.95;85.98
79752;BME280;69234;47.446;21.636;2024-03-02T02:48:33;100002.63;;;10.96;85.72
79752;BME280;69234;47.446;21.636;2024-03-02T02:49:04;99993.44;;;10.89;86.73
79752;BME280;69234;47.446;21.636;2024-03-02T02:49:35;100005.31;;;10.96;86.42
79752;BME280;69234;47.446;21.636;2024-03-02T02:50:10;100009.28;;;10.92;86.12
79752;BME280;69234;47.446;21.636;2024-03-02T02:50:41;100004.03;;;10.90;87.01
79752;BME280;69234;47.446;21.636;2024-03-02T02:51:12;100009.13;;;10.93;85.73